ADDS METAR Data INFO
IDs: Format: Raw Decoded Include TAF

Data at: 0029 UTC 11 Dec 2017

KPSO 110015Z AUTO 00000KT 10SM CLR 03/M22 A3048 RMK AO2 T00271216
KPSO 102355Z AUTO 00000KT 10SM CLR 04/M22 A3048 RMK AO2 T00361216 10111 20033
KPSO 102335Z AUTO 20003KT 10SM CLR 09/M23 A3048 RMK AO2 T00871231
KPSO 102315Z AUTO 23003KT 10SM CLR 10/M24 A3048 RMK AO2 T00991236
KPSO 102255Z AUTO 22003KT 10SM CLR 11/M23 A3048 RMK AO2 T01051234
KPSO 102235Z AUTO 23005KT 10SM CLR 11/M24 A3047 RMK AO2 T01071238
KPSO 102215Z AUTO 19004KT 10SM CLR 11/M24 A3048 RMK AO2 T01061238
KPSO 102155Z AUTO 16005KT 10SM CLR 11/M24 A3047 RMK AO2 T01101242
KPSO 102135Z AUTO 21004KT 10SM CLR 11/M23 A3048 RMK AO2 T01101234
KPSO 102115Z AUTO 11004KT 10SM CLR 11/M23 A3048 RMK AO2 T01081230
KPSO 102055Z AUTO 21003KT 10SM CLR 11/M23 A3048 RMK AO2 T01061233
KPSO 102035Z AUTO 18005KT 10SM CLR 11/M23 A3048 RMK AO2 T01051226
KPSO 102015Z AUTO 15004KT 10SM CLR 10/M23 A3049 RMK AO2 T01031229
KPSO 101955Z AUTO 00000KT 10SM CLR 10/M25 A3050 RMK AO2 T00981252
KPSO 101935Z AUTO 19003KT 10SM CLR 09/M23 A3051 RMK AO2 T00931234
KPSO 101915Z AUTO 00000KT 10SM CLR 09/M23 A3052 RMK AO2 T00851233
KPSO 101855Z AUTO 00000KT 10SM CLR 08/M24 A3053 RMK AO2 T00801239
KPSO 101835Z AUTO 19005KT 10SM CLR 08/M23 A3053 RMK AO2 T00761235
KPSO 101815Z AUTO 14003KT 10SM CLR 08/M23 A3054 RMK AO2 T00751233
KPSO 101755Z AUTO 00000KT 10SM CLR 07/M22 A3055 RMK AO2 T00711221 10071 21114
KPSO 101735Z AUTO 00000KT 10SM CLR 05/M22 A3056 RMK AO2 T00541220
KPSO 101715Z AUTO 00000KT 10SM CLR 05/M23 A3056 RMK AO2 T00491232
KPSO 101655Z AUTO 00000KT 10SM CLR 04/M24 A3056 RMK AO2 T00371240
KPSO 101635Z AUTO 00000KT 10SM VCTS CLR 02/M24 A3056 RMK AO2 T00171237
KPSO 101615Z AUTO 00000KT 10SM CLR 00/M23 A3056 RMK AO2 T00011226
KPSO 101555Z AUTO 00000KT 10SM CLR M01/M21 A3056 RMK AO2 T10071212
KPSO 101535Z AUTO 00000KT 10SM CLR M04/M17 A3055 RMK AO2 T10361167
KPSO 101515Z AUTO 00000KT 10SM CLR M06/M17 A3055 RMK AO2 T10621174
KPSO 101455Z AUTO 00000KT 10SM CLR M09/M20 A3055 RMK AO2 T10871200
KPSO 101435Z AUTO 00000KT 10SM CLR M10/M21 A3054 RMK AO2 T10991207
KPSO 101415Z AUTO 00000KT 10SM CLR M09/M21 A3054 RMK AO2 T10941209
KPSO 101355Z AUTO 00000KT 10SM CLR M10/M20 A3054 RMK AO2 T10981204
KPSO 101335Z AUTO 00000KT 10SM CLR M10/M20 A3054 RMK AO2 T10961198
KPSO 101315Z AUTO 00000KT 10SM CLR M11/M20 A3054 RMK AO2 T11131198
KPSO 101255Z AUTO 00000KT 10SM CLR M11/M19 A3053 RMK AO2 T11101188
KPSO 101235Z AUTO 00000KT 10SM CLR M09/M19 A3052 RMK AO2 T10921186
KPSO 101215Z AUTO 00000KT 10SM CLR M10/M18 A3052 RMK AO2 T10961181
KPSO 101155Z AUTO 00000KT 10SM CLR M10/M18 A3052 RMK AO2 T11001184 11057 21102
KPSO 101135Z AUTO 00000KT 10SM CLR M08/M18 A3052 RMK AO2 T10801185
KPSO 101115Z AUTO 00000KT 10SM CLR M09/M18 A3052 RMK AO2 T10901184
KPSO 101055Z AUTO 00000KT 10SM CLR M10/M18 A3052 RMK AO2 T11001185
KPSO 101035Z AUTO 00000KT 10SM CLR M09/M18 A3052 RMK AO2 T10911176
KPSO 101015Z AUTO 00000KT 10SM CLR M10/M17 A3052 RMK AO2 T11001175
KPSO 100955Z AUTO 00000KT 10SM CLR M07/M17 A3052 RMK AO2 T10751175
KPSO 100935Z AUTO 00000KT 10SM CLR M08/M17 A3052 RMK AO2 T10831172
KPSO 100915Z AUTO 00000KT 10SM CLR M08/M17 A3052 RMK AO2 T10821174
KPSO 100855Z AUTO 00000KT 10SM CLR M09/M17 A3052 RMK AO2 T10911170
KPSO 100835Z AUTO 00000KT 10SM CLR M06/M17 A3051 RMK AO2 T10631172
KPSO 100815Z AUTO 00000KT 10SM CLR M08/M17 A3051 RMK AO2 T10801168
KPSO 100755Z AUTO 00000KT 10SM CLR M09/M17 A3051 RMK AO2 T10881171
KPSO 100735Z AUTO 00000KT 10SM CLR M09/M17 A3052 RMK AO2 T10871171
KPSO 100715Z AUTO 00000KT 10SM CLR M07/M16 A3052 RMK AO2 T10701165
KPSO 100655Z AUTO 00000KT 10SM CLR M06/M17 A3052 RMK AO2 T10621167
KPSO 100635Z AUTO 00000KT 10SM CLR M07/M17 A3052 RMK AO2 T10661171
KPSO 100615Z AUTO 00000KT 10SM CLR M06/M16 A3052 RMK AO2 T10611163
KPSO 100555Z AUTO 00000KT 10SM CLR M07/M16 A3052 RMK AO2 T10701160 10042 21074 401081098
KPSO 100535Z AUTO 00000KT 10SM CLR M06/M16 A3052 RMK AO2 T10631164
KPSO 100515Z AUTO 00000KT 10SM CLR M06/M16 A3052 RMK AO2 T10631160
KPSO 100455Z AUTO 30003KT 10SM CLR M05/M17 A3052 RMK AO2 T10551167
KPSO 100435Z AUTO 00000KT 10SM CLR M06/M17 A3051 RMK AO2 LTG DSNT S T10581168
KPSO 100415Z AUTO 00000KT 10SM CLR M05/M17 A3051 RMK AO2 T10491170
KPSO 100355Z AUTO 00000KT 10SM CLR M05/M16 A3051 RMK AO2 T10531165
KPSO 100335Z AUTO 00000KT 10SM CLR M05/M16 A3050 RMK AO2 T10531165
KPSO 100315Z AUTO 00000KT 10SM CLR M03/M17 A3050 RMK AO2 T10311169
KPSO 100255Z AUTO 00000KT 10SM CLR M03/M17 A3050 RMK AO2 T10301167
KPSO 100235Z AUTO 00000KT 10SM CLR M03/M16 A3050 RMK AO2 T10341163
KPSO 100215Z AUTO 00000KT 10SM CLR M03/M16 A3049 RMK AO2 T10291165
KPSO 100155Z AUTO 00000KT 10SM CLR M03/M17 A3049 RMK AO2 T10311170
KPSO 100135Z AUTO 00000KT 10SM CLR M02/M16 A3049 RMK AO2 T10201164
KPSO 100115Z AUTO 00000KT 10SM CLR M02/M17 A3048 RMK AO2 T10161168
KPSO 100055Z AUTO 00000KT 10SM CLR 00/M17 A3048 RMK AO2 T00011167
KPSO 100035Z AUTO 00000KT 10SM CLR M01/M17 A3047 RMK AO2 T10101172
KPSO 100015Z AUTO 00000KT 10SM CLR 03/M17 A3046 RMK AO2 T00261173
KPSO 092355Z AUTO 23003KT 10SM VCTS CLR 04/M18 A3046 RMK AO2 T00441178 10108 20044
KPSO 092335Z AUTO 18006KT 10SM CLR 08/M18 A3046 RMK AO2 T00751185
KPSO 092315Z AUTO 20004KT 10SM CLR 09/M19 A3046 RMK AO2 T00861192
KPSO 092255Z AUTO 20007KT 10SM CLR 09/M20 A3045 RMK AO2 T00921201
KPSO 092235Z AUTO 23006KT 10SM CLR 10/M21 A3045 RMK AO2 T00971210
KPSO 092215Z AUTO 21006KT 10SM CLR 10/M21 A3044 RMK AO2 T01031207
KPSO 092155Z AUTO 17006KT 10SM CLR 11/M21 A3044 RMK AO2 T01061210
KPSO 092135Z AUTO 24004KT 10SM CLR 11/M22 A3044 RMK AO2 T01071217
KPSO 092115Z AUTO 21005KT 10SM CLR 11/M22 A3044 RMK AO2 T01051222
KPSO 092055Z AUTO 24006KT 10SM CLR 10/M22 A3044 RMK AO2 T01011221
KPSO 092035Z AUTO 21005KT 10SM CLR 10/M23 A3044 RMK AO2 T01001230
KPSO 092015Z AUTO 22007KT 10SM CLR 10/M25 A3044 RMK AO2 T01001246
KPSO 091955Z AUTO 20008KT 10SM CLR 10/M24 A3045 RMK AO2 T00971240
KPSO 091935Z AUTO 22006KT 10SM CLR 09/M23 A3046 RMK AO2 T00931231
KPSO 091915Z AUTO 17004KT 10SM CLR 09/M22 A3047 RMK AO2 T00861216
KPSO 091855Z AUTO 00000KT 10SM CLR 08/M22 A3048 RMK AO2 T00771223
KPSO 091835Z AUTO 22003KT 10SM CLR 07/M22 A3049 RMK AO2 T00701222
KPSO 091815Z AUTO 20004KT 10SM CLR 07/M22 A3050 RMK AO2 T00691222
KPSO 091755Z AUTO 00000KT 10SM CLR 06/M21 A3050 RMK AO2 T00611212 10061 21098
KPSO 091735Z AUTO 00000KT 10SM CLR 05/M21 A3051 RMK AO2 T00531211
KPSO 091715Z AUTO 00000KT 10SM CLR 04/M21 A3051 RMK AO2 T00411206
KPSO 091655Z AUTO 00000KT 10SM CLR 03/M18 A3051 RMK AO2 T00321180
KPSO 091635Z AUTO 00000KT 10SM CLR 03/M19 A3051 RMK AO2 T00271195
KPSO 091615Z AUTO 00000KT 10SM CLR 01/M19 A3051 RMK AO2 T00061189
KPSO 091555Z AUTO 00000KT 10SM CLR 00/M19 A3051 RMK AO2 T10011186
KPSO 091535Z AUTO 00000KT 10SM CLR M03/M16 A3051 RMK AO2 T10281158
KPSO 091515Z AUTO 00000KT 10SM CLR M05/M15 A3050 RMK AO2 T10521155
KPSO 091455Z AUTO 00000KT 10SM CLR M07/M17 A3050 RMK AO2 T10691174
KPSO 091435Z AUTO 00000KT 10SM CLR M09/M18 A3049 RMK AO2 T10881179
KPSO 091415Z AUTO 00000KT 10SM CLR M08/M17 A3049 RMK AO2 T10801175
KPSO 091355Z AUTO 00000KT 10SM VCTS CLR M08/M17 A3048 RMK AO2 T10771170
KPSO 091335Z AUTO 00000KT 10SM CLR M08/M18 A3048 RMK AO2 T10771177
KPSO 091315Z AUTO 00000KT 10SM CLR M08/M17 A3047 RMK AO2 T10761171
KPSO 091255Z AUTO 00000KT 10SM CLR M08/M17 A3047 RMK AO2 T10821172
KPSO 091235Z AUTO 00000KT 10SM CLR M09/M17 A3046 RMK AO2 T10901171